Time;durP1;ratioP1;P1;durP2;ratioP2;P2;SDS_P1;SDS_P2;PMS_P1;PMS_P2;Temp;Humidity;BMP_temperature;BMP_pressure;BME280_temperature;BME280_humidity;BME280_pressure;Samples;Min_cycle;Max_cycle;Signal;HPM_P1;HPM_P2
2022/10/17 00:01:29;;;;;;;35.50;23.20;;;;;;;;;;5059530;28;20031;-82
2022/10/17 00:04:06;;;;;;;36.95;22.20;;;;;;;;;;5081631;28;20063;-83
2022/10/17 00:06:32;;;;;;;36.58;22.42;;;;;;;;;;5081375;28;20067;-82
2022/10/17 00:09:14;;;;;;;33.42;23.23;;;;;;;;;;5080544;28;20107;-82
2022/10/17 00:11:40;;;;;;;35.53;23.73;;;;;;;;;;5061549;28;20037;-83
2022/10/17 00:14:06;;;;;;;34.40;23.33;;;;;;;;;;5061039;28;20155;-82
2022/10/17 00:16:35;;;;;;;37.97;22.90;;;;;;;;;;5057539;28;20060;-83
2022/10/17 00:19:02;;;;;;;35.33;23.05;;;;;;;;;;5041828;28;20021;-83
2022/10/17 00:21:28;;;;;;;35.08;23.13;;;;;;;;;;5077064;28;20048;-83
2022/10/17 00:23:59;;;;;;;33.45;21.35;;;;;;;;;;5079553;28;20028;-83
2022/10/17 00:26:25;;;;;;;34.03;22.50;;;;;;;;;;5057923;28;20048;-83
2022/10/17 00:28:57;;;;;;;37.03;22.52;;;;;;;;;;5079510;28;20021;-83
2022/10/17 00:31:24;;;;;;;36.53;23.35;;;;;;;;;;5079979;28;20107;-82
2022/10/17 00:36:43;;;;;;;35.95;21.70;;;;;;;;;;5079422;28;20036;-83
2022/10/17 00:39:09;;;;;;;38.53;23.83;;;;;;;;;;5079618;28;20028;-83
2022/10/17 00:41:37;;;;;;;35.60;23.27;;;;;;;;;;5078991;28;20033;-83
2022/10/17 00:44:03;;;;;;;37.10;23.08;;;;;;;;;;5061419;28;20085;-83
2022/10/17 00:46:30;;;;;;;37.83;24.35;;;;;;;;;;5079398;28;20051;-82
2022/10/17 00:55:16;;;;;;;36.67;23.83;;;;;;;;;;5080398;28;20035;-82
2022/10/17 00:57:42;;;;;;;37.17;23.92;;;;;;;;;;5079997;28;20035;-83
2022/10/17 01:00:18;;;;;;;38.40;23.40;;;;;;;;;;5061638;28;20025;-83
2022/10/17 01:02:44;;;;;;;42.00;23.27;;;;;;;;;;5079363;28;20021;-83
2022/10/17 01:05:11;;;;;;;36.60;24.33;;;;;;;;;;5061210;28;20063;-83
2022/10/17 01:08:04;;;;;;;40.92;25.55;;;;;;;;;;5078968;28;20028;-82
2022/10/17 01:10:34;;;;;;;38.85;24.17;;;;;;;;;;5066688;28;20422;-83
2022/10/17 01:13:00;;;;;;;40.45;23.70;;;;;;;;;;5075683;28;20025;-83
2022/10/17 01:15:44;;;;;;;36.38;23.17;;;;;;;;;;5058252;28;20044;-83
2022/10/17 01:18:29;;;;;;;38.97;23.70;;;;;;;;;;5076349;28;20499;-83
2022/10/17 01:20:55;;;;;;;37.38;23.70;;;;;;;;;;5078161;28;20028;-83
2022/10/17 01:23:35;;;;;;;36.70;23.90;;;;;;;;;;5077923;28;20471;-83
2022/10/17 01:26:21;;;;;;;36.95;23.20;;;;;;;;;;5046366;28;20492;-83
2022/10/17 01:28:55;;;;;;;35.88;22.05;;;;;;;;;;5058663;28;20222;-83
2022/10/17 01:31:54;;;;;;;40.03;25.52;;;;;;;;;;5073666;28;20064;-84
2022/10/17 01:34:38;;;;;;;40.45;24.30;;;;;;;;;;5079157;28;20040;-82
2022/10/17 01:37:04;;;;;;;44.72;25.50;;;;;;;;;;5078526;28;20029;-83
2022/10/17 01:39:39;;;;;;;39.17;25.25;;;;;;;;;;5079201;28;20059;-83
2022/10/17 01:42:13;;;;;;;40.45;24.23;;;;;;;;;;5078344;28;20074;-83
2022/10/17 01:44:44;;;;;;;39.38;24.38;;;;;;;;;;5078214;28;20488;-82
2022/10/17 01:47:20;;;;;;;43.60;25.92;;;;;;;;;;5078052;28;20099;-82
2022/10/17 01:50:09;;;;;;;41.55;25.25;;;;;;;;;;5078089;28;20458;-82
2022/10/17 01:52:41;;;;;;;42.13;25.38;;;;;;;;;;5063794;28;20496;-82
2022/10/17 02:01:04;;;;;;;39.65;24.40;;;;;;;;;;5072978;28;20075;-83
2022/10/17 02:03:44;;;;;;;40.22;24.73;;;;;;;;;;5078305;28;20046;-83
2022/10/17 02:06:10;;;;;;;41.67;24.80;;;;;;;;;;5060090;28;20021;-83
2022/10/17 02:08:59;;;;;;;39.13;23.85;;;;;;;;;;5078240;28;20115;-83
2022/10/17 02:11:26;;;;;;;37.30;23.00;;;;;;;;;;5078396;28;20041;-83
2022/10/17 02:14:12;;;;;;;38.63;23.33;;;;;;;;;;5059656;28;20021;-82
2022/10/17 02:16:56;;;;;;;38.50;23.23;;;;;;;;;;5077951;28;20025;-83
2022/10/17 02:19:36;;;;;;;36.33;22.48;;;;;;;;;;5074674;28;20104;-82
2022/10/17 02:22:08;;;;;;;37.35;22.00;;;;;;;;;;5050527;28;20035;-82
2022/10/17 02:24:46;;;;;;;35.55;21.27;;;;;;;;;;5057382;28;20120;-82
2022/10/17 02:27:31;;;;;;;36.67;22.05;;;;;;;;;;5057747;28;20037;-82
2022/10/17 02:30:26;;;;;;;36.30;20.90;;;;;;;;;;5048749;28;20021;-82
2022/10/17 02:32:58;;;;;;;32.67;19.65;;;;;;;;;;5059686;28;20080;-83
2022/10/17 02:35:26;;;;;;;32.03;20.03;;;;;;;;;;5040362;28;20028;-83
2022/10/17 02:37:53;;;;;;;30.98;20.95;;;;;;;;;;5076871;28;20189;-83
2022/10/17 02:40:20;;;;;;;30.65;19.33;;;;;;;;;;5068681;28;20028;-82
2022/10/17 02:42:49;;;;;;;30.88;19.35;;;;;;;;;;5059607;28;20025;-81
2022/10/17 02:45:15;;;;;;;33.08;19.88;;;;;;;;;;5077291;28;20090;-82
2022/10/17 02:47:47;;;;;;;29.00;19.15;;;;;;;;;;5074351;28;20361;-82
2022/10/17 02:50:13;;;;;;;30.90;19.80;;;;;;;;;;5065282;28;20063;-83
2022/10/17 02:53:01;;;;;;;30.08;19.17;;;;;;;;;;5076922;28;20027;-82
2022/10/17 02:58:32;;;;;;;33.72;19.55;;;;;;;;;;5066276;28;20079;-82
2022/10/17 03:01:17;;;;;;;28.00;18.38;;;;;;;;;;5059543;28;20029;-82
2022/10/17 03:03:46;;;;;;;30.23;18.48;;;;;;;;;;5077126;28;20040;-82
2022/10/17 03:06:12;;;;;;;29.75;18.52;;;;;;;;;;5080566;28;20025;-82
2022/10/17 03:08:47;;;;;;;31.35;19.50;;;;;;;;;;5080400;28;20558;-82
2022/10/17 03:11:13;;;;;;;32.75;19.38;;;;;;;;;;5062386;28;20075;-82
2022/10/17 03:14:02;;;;;;;31.17;18.73;;;;;;;;;;5080927;28;20017;-82
2022/10/17 03:16:28;;;;;;;29.00;18.45;;;;;;;;;;5062913;28;20017;-82
2022/10/17 03:19:13;;;;;;;30.08;19.38;;;;;;;;;;5058361;28;20108;-82
2022/10/17 03:21:39;;;;;;;30.40;19.00;;;;;;;;;;5080483;28;20042;-82
2022/10/17 03:24:34;;;;;;;25.52;17.63;;;;;;;;;;5080116;28;20025;-83
2022/10/17 03:27:00;;;;;;;26.70;18.48;;;;;;;;;;5058901;28;20028;-82
2022/10/17 03:29:42;;;;;;;29.40;18.48;;;;;;;;;;5069598;28;20361;-82
2022/10/17 03:32:08;;;;;;;27.70;19.42;;;;;;;;;;5060030;28;20400;-82
2022/10/17 03:34:50;;;;;;;27.33;19.13;;;;;;;;;;5061430;28;20029;-82
2022/10/17 03:37:21;;;;;;;30.50;18.50;;;;;;;;;;5060531;28;20060;-82
2022/10/17 03:39:47;;;;;;;29.60;18.38;;;;;;;;;;5060473;28;20050;-82
2022/10/17 03:42:21;;;;;;;28.45;19.25;;;;;;;;;;5079622;28;20628;-82
2022/10/17 03:44:47;;;;;;;31.95;19.30;;;;;;;;;;5061359;28;20122;-82
2022/10/17 03:47:13;;;;;;;27.65;17.70;;;;;;;;;;5089165;28;20032;-83
2022/10/17 03:49:39;;;;;;;28.30;18.48;;;;;;;;;;5082241;28;20170;-83
2022/10/17 03:52:05;;;;;;;29.70;18.90;;;;;;;;;;5059891;28;20039;-84
2022/10/17 03:54:31;;;;;;;29.60;18.92;;;;;;;;;;5070467;28;20458;-84
2022/10/17 03:56:57;;;;;;;31.85;20.15;;;;;;;;;;5051475;28;20488;-84
2022/10/17 03:59:23;;;;;;;28.23;19.25;;;;;;;;;;5076160;28;20039;-84
2022/10/17 04:01:49;;;;;;;26.13;17.70;;;;;;;;;;5077275;28;20136;-84
2022/10/17 04:04:15;;;;;;;28.88;19.45;;;;;;;;;;5081235;28;20040;-85
2022/10/17 04:06:41;;;;;;;28.88;17.73;;;;;;;;;;5084678;28;20025;-83
2022/10/17 04:09:07;;;;;;;28.85;18.73;;;;;;;;;;5082746;28;20032;-84
2022/10/17 04:11:33;;;;;;;29.88;18.08;;;;;;;;;;5074190;28;20065;-85
2022/10/17 04:13:59;;;;;;;27.65;19.48;;;;;;;;;;5075924;28;20078;-85
2022/10/17 04:16:25;;;;;;;28.15;17.48;;;;;;;;;;5075670;28;20025;-85
2022/10/17 04:18:54;;;;;;;27.83;17.30;;;;;;;;;;5060789;28;20033;-86
2022/10/17 04:21:20;;;;;;;30.77;19.13;;;;;;;;;;5076257;28;20028;-85
2022/10/17 04:23:46;;;;;;;28.40;19.15;;;;;;;;;;5081218;28;20174;-84
2022/10/17 04:26:12;;;;;;;29.30;18.27;;;;;;;;;;5056154;28;20331;-84
2022/10/17 04:28:38;;;;;;;29.27;16.95;;;;;;;;;;5063555;28;20395;-84
2022/10/17 04:31:05;;;;;;;28.27;18.10;;;;;;;;;;5054799;28;20545;-83
2022/10/17 04:33:32;;;;;;;27.77;18.27;;;;;;;;;;5073665;28;20031;-83
2022/10/17 04:36:03;;;;;;;32.35;19.95;;;;;;;;;;5071933;28;20020;-84
2022/10/17 04:38:29;;;;;;;30.73;18.27;;;;;;;;;;5056387;28;20412;-84
2022/10/17 04:41:01;;;;;;;27.55;17.05;;;;;;;;;;5072048;28;20032;-84
2022/10/17 04:43:28;;;;;;;27.33;17.48;;;;;;;;;;5074021;28;20480;-84
2022/10/17 04:45:54;;;;;;;24.90;16.88;;;;;;;;;;5053252;28;20020;-84
2022/10/17 04:48:20;;;;;;;28.80;17.70;;;;;;;;;;5046363;28;20373;-83
2022/10/17 04:50:52;;;;;;;27.50;18.85;;;;;;;;;;5069124;28;20024;-84
2022/10/17 04:53:19;;;;;;;25.13;17.45;;;;;;;;;;5070070;28;20511;-84
2022/10/17 04:55:45;;;;;;;27.77;18.17;;;;;;;;;;5072490;28;20032;-84
2022/10/17 04:58:11;;;;;;;26.33;17.10;;;;;;;;;;5073383;28;20067;-84
2022/10/17 05:00:37;;;;;;;29.02;18.80;;;;;;;;;;5068463;28;20024;-85
2022/10/17 05:03:03;;;;;;;25.23;17.05;;;;;;;;;;5073314;28;20511;-84
2022/10/17 05:05:30;;;;;;;25.42;17.48;;;;;;;;;;5069870;28;20029;-84
2022/10/17 05:07:56;;;;;;;25.98;16.33;;;;;;;;;;5050520;28;20025;-84
2022/10/17 05:10:22;;;;;;;27.70;18.00;;;;;;;;;;5063216;28;20104;-84
2022/10/17 05:12:48;;;;;;;27.85;17.50;;;;;;;;;;5072792;28;20497;-84
2022/10/17 05:15:14;;;;;;;27.55;17.02;;;;;;;;;;5072085;28;20108;-84
2022/10/17 05:17:40;;;;;;;25.88;17.08;;;;;;;;;;5054296;28;20403;-84
2022/10/17 05:20:07;;;;;;;27.52;16.73;;;;;;;;;;5068061;28;20029;-84
2022/10/17 05:22:33;;;;;;;26.48;16.20;;;;;;;;;;5060049;28;20028;-84
2022/10/17 05:24:59;;;;;;;29.55;17.10;;;;;;;;;;5070174;28;20376;-85
2022/10/17 05:27:25;;;;;;;24.90;15.95;;;;;;;;;;5052285;28;20098;-84
2022/10/17 05:29:52;;;;;;;22.98;16.67;;;;;;;;;;5072255;28;20017;-84
2022/10/17 05:32:18;;;;;;;25.95;17.55;;;;;;;;;;5054254;28;20029;-84
2022/10/17 05:34:44;;;;;;;25.10;15.77;;;;;;;;;;5070516;28;20028;-84
2022/10/17 05:37:10;;;;;;;26.25;16.50;;;;;;;;;;5071869;28;20028;-84
2022/10/17 05:39:36;;;;;;;22.40;15.13;;;;;;;;;;5067745;28;20027;-84
2022/10/17 05:42:02;;;;;;;25.80;16.30;;;;;;;;;;5071259;28;20028;-82
2022/10/17 05:44:28;;;;;;;21.55;15.27;;;;;;;;;;5046419;28;20040;-82
2022/10/17 05:46:54;;;;;;;24.30;15.25;;;;;;;;;;5066818;28;20102;-82
2022/10/17 05:49:20;;;;;;;23.58;15.70;;;;;;;;;;5053748;28;20111;-82
2022/10/17 05:51:46;;;;;;;23.20;16.30;;;;;;;;;;5063884;28;20056;-81
2022/10/17 05:54:12;;;;;;;23.30;15.32;;;;;;;;;;5050869;28;20024;-81
2022/10/17 05:56:38;;;;;;;23.05;15.57;;;;;;;;;;5068804;28;20021;-82
2022/10/17 05:59:04;;;;;;;22.60;15.25;;;;;;;;;;5070112;28;20036;-82
2022/10/17 06:01:30;;;;;;;25.20;15.13;;;;;;;;;;5069369;28;20038;-83
2022/10/17 06:03:56;;;;;;;24.42;15.95;;;;;;;;;;5042009;28;20029;-84
2022/10/17 06:06:22;;;;;;;24.45;15.07;;;;;;;;;;5072510;28;20037;-82
2022/10/17 06:08:48;;;;;;;22.25;14.73;;;;;;;;;;5070350;28;20039;-82
2022/10/17 06:11:14;;;;;;;23.58;15.73;;;;;;;;;;5067302;28;20063;-82
2022/10/17 06:13:41;;;;;;;23.38;15.13;;;;;;;;;;5040268;28;20025;-82
2022/10/17 06:16:07;;;;;;;22.27;14.40;;;;;;;;;;5051608;28;20033;-82
2022/10/17 06:18:33;;;;;;;20.77;14.00;;;;;;;;;;5050643;28;20263;-82
2022/10/17 06:21:06;;;;;;;21.95;15.10;;;;;;;;;;5053639;28;20125;-82
2022/10/17 06:23:32;;;;;;;22.25;14.60;;;;;;;;;;5062440;28;20060;-83
2022/10/17 06:25:59;;;;;;;18.80;13.77;;;;;;;;;;5072034;28;20507;-82
2022/10/17 06:28:25;;;;;;;22.90;12.95;;;;;;;;;;5071750;28;20033;-82
2022/10/17 06:30:51;;;;;;;21.15;14.13;;;;;;;;;;5071480;28;20025;-82
2022/10/17 06:33:17;;;;;;;24.95;15.30;;;;;;;;;;5070923;28;20025;-82
2022/10/17 06:35:43;;;;;;;17.55;12.70;;;;;;;;;;5054525;28;20150;-82
2022/10/17 06:38:09;;;;;;;18.13;13.25;;;;;;;;;;5073026;28;20024;-82
2022/10/17 06:40:35;;;;;;;18.70;13.55;;;;;;;;;;5074442;28;20096;-83
2022/10/17 06:43:01;;;;;;;20.27;13.15;;;;;;;;;;5057512;28;20044;-82
2022/10/17 06:45:27;;;;;;;22.58;15.48;;;;;;;;;;5076571;28;20033;-82
2022/10/17 06:47:54;;;;;;;21.40;14.07;;;;;;;;;;5076362;28;20036;-82
2022/10/17 06:50:20;;;;;;;20.33;14.05;;;;;;;;;;5074356;28;20021;-82
2022/10/17 06:52:46;;;;;;;18.67;13.38;;;;;;;;;;5052806;28;20024;-82
2022/10/17 06:55:12;;;;;;;20.75;12.70;;;;;;;;;;5059772;28;20036;-82
2022/10/17 06:57:38;;;;;;;17.77;12.43;;;;;;;;;;5057474;28;20037;-83
2022/10/17 07:00:05;;;;;;;21.50;13.18;;;;;;;;;;5054055;28;20088;-82
2022/10/17 07:02:31;;;;;;;18.63;12.45;;;;;;;;;;5075615;28;20029;-83
2022/10/17 07:04:57;;;;;;;18.42;12.57;;;;;;;;;;5078785;28;20110;-83
2022/10/17 07:07:23;;;;;;;18.42;13.07;;;;;;;;;;5059218;28;20473;-83
2022/10/17 07:09:49;;;;;;;18.88;13.45;;;;;;;;;;5078423;28;20033;-83
2022/10/17 07:12:15;;;;;;;19.98;13.25;;;;;;;;;;5057937;28;20415;-83
2022/10/17 07:14:41;;;;;;;20.02;13.73;;;;;;;;;;5074296;28;20025;-83
2022/10/17 07:17:07;;;;;;;18.33;11.63;;;;;;;;;;5057075;28;20122;-82
2022/10/17 07:19:33;;;;;;;17.38;13.27;;;;;;;;;;5058810;28;20040;-82
2022/10/17 07:21:59;;;;;;;17.65;12.77;;;;;;;;;;5068349;28;20017;-83
2022/10/17 07:24:25;;;;;;;18.52;12.15;;;;;;;;;;5056412;28;20112;-83
2022/10/17 07:26:51;;;;;;;20.27;13.65;;;;;;;;;;5072810;28;20441;-83
2022/10/17 07:29:17;;;;;;;18.90;13.52;;;;;;;;;;5076614;28;20021;-83
2022/10/17 07:31:44;;;;;;;20.17;12.70;;;;;;;;;;5074989;28;20469;-83
2022/10/17 07:34:10;;;;;;;18.42;11.93;;;;;;;;;;5058028;28;20455;-83
2022/10/17 07:36:36;;;;;;;18.95;12.85;;;;;;;;;;5075313;28;20086;-83
2022/10/17 07:39:02;;;;;;;16.55;12.48;;;;;;;;;;5078226;28;20028;-83
2022/10/17 07:41:28;;;;;;;16.60;12.25;;;;;;;;;;5075472;28;20497;-83
2022/10/17 07:43:55;;;;;;;18.23;12.85;;;;;;;;;;5077210;28;20078;-82
2022/10/17 07:46:21;;;;;;;18.95;14.10;;;;;;;;;;5046587;28;20036;-83
2022/10/17 07:48:47;;;;;;;22.13;13.50;;;;;;;;;;5071471;28;20028;-82
2022/10/17 07:51:13;;;;;;;18.95;14.07;;;;;;;;;;5076382;28;20020;-83
2022/10/17 07:53:39;;;;;;;18.60;13.40;;;;;;;;;;5057725;28;20023;-82
2022/10/17 07:56:08;;;;;;;19.40;14.60;;;;;;;;;;5056000;28;20033;-83
2022/10/17 07:58:35;;;;;;;18.90;13.85;;;;;;;;;;5055478;28;20029;-83
2022/10/17 08:01:05;;;;;;;19.17;13.80;;;;;;;;;;5063192;28;20033;-82
2022/10/17 08:03:31;;;;;;;18.50;13.95;;;;;;;;;;5057968;28;20033;-82
2022/10/17 08:05:58;;;;;;;18.23;13.43;;;;;;;;;;5075140;28;20700;-83
2022/10/17 08:08:24;;;;;;;21.23;14.68;;;;;;;;;;5057665;28;20153;-83
2022/10/17 08:10:50;;;;;;;20.55;14.85;;;;;;;;;;5057175;28;20043;-83
2022/10/17 08:13:16;;;;;;;23.75;15.55;;;;;;;;;;5075513;28;20020;-82
2022/10/17 08:15:42;;;;;;;21.42;15.35;;;;;;;;;;5055660;28;20017;-83
2022/10/17 08:18:08;;;;;;;19.25;14.00;;;;;;;;;;5070995;28;20024;-82
2022/10/17 08:20:34;;;;;;;20.00;14.93;;;;;;;;;;5062742;28;20093;-83
2022/10/17 08:23:00;;;;;;;22.58;16.27;;;;;;;;;;5076485;28;20021;-82
2022/10/17 08:25:26;;;;;;;24.80;16.10;;;;;;;;;;5075455;28;20479;-84
2022/10/17 08:27:52;;;;;;;24.50;17.13;;;;;;;;;;5075610;28;20024;-82
2022/10/17 08:30:18;;;;;;;21.33;15.15;;;;;;;;;;5073542;28;20644;-82
2022/10/17 08:32:44;;;;;;;23.10;16.75;;;;;;;;;;5074894;28;20061;-83
2022/10/17 08:35:10;;;;;;;23.67;15.77;;;;;;;;;;5057566;28;20031;-82
2022/10/17 08:37:36;;;;;;;24.33;16.17;;;;;;;;;;5075223;28;20029;-83
2022/10/17 08:40:03;;;;;;;22.90;16.23;;;;;;;;;;5054669;28;20086;-83
2022/10/17 08:43:04;;;;;;;24.08;15.60;;;;;;;;;;5055986;28;20024;-83
2022/10/17 08:45:42;;;;;;;24.92;16.33;;;;;;;;;;4974542;28;20085;-82
2022/10/17 08:48:10;;;;;;;23.63;16.20;;;;;;;;;;5043811;28;20049;-82
2022/10/17 08:50:54;;;;;;;26.42;18.30;;;;;;;;;;5058112;28;20020;-82
2022/10/17 08:53:26;;;;;;;21.92;16.95;;;;;;;;;;5073429;28;20531;-82
2022/10/17 08:55:53;;;;;;;25.10;18.38;;;;;;;;;;5056693;28;20522;-81
2022/10/17 08:58:19;;;;;;;23.17;17.42;;;;;;;;;;5074003;28;20340;-81
2022/10/17 09:01:00;;;;;;;24.05;16.65;;;;;;;;;;5069535;28;20503;-82
2022/10/17 09:03:42;;;;;;;21.83;15.98;;;;;;;;;;5056273;28;20033;-81
2022/10/17 09:06:15;;;;;;;21.90;15.43;;;;;;;;;;5056908;28;20072;-82
2022/10/17 09:08:51;;;;;;;23.33;15.77;;;;;;;;;;5073869;28;20381;-81
2022/10/17 09:11:29;;;;;;;20.00;15.70;;;;;;;;;;5054083;28;20556;-81
2022/10/17 09:14:01;;;;;;;21.48;14.68;;;;;;;;;;5054160;28;20021;-82
2022/10/17 09:16:29;;;;;;;19.50;14.88;;;;;;;;;;5059232;28;20028;-81
2022/10/17 09:19:04;;;;;;;21.35;14.85;;;;;;;;;;5075059;28;20031;-82
2022/10/17 09:21:43;;;;;;;18.60;13.48;;;;;;;;;;5041687;28;20595;-81
2022/10/17 09:24:13;;;;;;;19.85;14.30;;;;;;;;;;5074636;28;20025;-82
2022/10/17 09:26:39;;;;;;;20.23;14.90;;;;;;;;;;5056871;28;20028;-82
2022/10/17 09:29:13;;;;;;;20.63;15.73;;;;;;;;;;5043504;28;20445;-81
2022/10/17 09:31:44;;;;;;;19.52;14.25;;;;;;;;;;5068480;28;20056;-82
2022/10/17 09:34:10;;;;;;;17.77;12.93;;;;;;;;;;5062076;28;20150;-80
2022/10/17 09:36:41;;;;;;;18.17;13.18;;;;;;;;;;5073464;28;20507;-81
2022/10/17 09:39:12;;;;;;;18.35;13.55;;;;;;;;;;5073146;28;20024;-82
2022/10/17 09:41:38;;;;;;;19.35;12.85;;;;;;;;;;5065518;28;20036;-82
2022/10/17 09:44:22;;;;;;;19.35;13.90;;;;;;;;;;5065553;28;20029;-83
2022/10/17 09:47:11;;;;;;;20.15;14.20;;;;;;;;;;5053335;28;20106;-83
2022/10/17 09:49:38;;;;;;;20.55;15.02;;;;;;;;;;5053660;28;20029;-82
2022/10/17 09:52:05;;;;;;;22.27;15.70;;;;;;;;;;5073150;28;20112;-80
2022/10/17 09:54:46;;;;;;;22.17;16.60;;;;;;;;;;5074096;28;20025;-83
2022/10/17 09:57:12;;;;;;;22.60;15.90;;;;;;;;;;5071077;28;20044;-81
2022/10/17 09:59:40;;;;;;;22.88;16.45;;;;;;;;;;5059196;28;20130;-82
2022/10/17 10:02:26;;;;;;;22.58;17.95;;;;;;;;;;5066290;28;20024;-82
2022/10/17 10:04:54;;;;;;;19.55;15.07;;;;;;;;;;5055780;28;20029;-83
2022/10/17 10:07:21;;;;;;;19.08;15.60;;;;;;;;;;5073792;28;20017;-82
2022/10/17 10:09:48;;;;;;;20.80;15.70;;;;;;;;;;5072403;28;20033;-83
2022/10/17 10:12:25;;;;;;;19.70;15.25;;;;;;;;;;5073509;28;20025;-82
2022/10/17 10:14:51;;;;;;;20.08;15.77;;;;;;;;;;5075223;28;20017;-83
2022/10/17 10:17:28;;;;;;;22.52;15.93;;;;;;;;;;5051746;28;20028;-83
2022/10/17 10:19:54;;;;;;;23.55;14.73;;;;;;;;;;5054830;28;20078;-83
2022/10/17 10:22:24;;;;;;;19.42;14.70;;;;;;;;;;5077894;28;20029;-82
2022/10/17 10:25:08;;;;;;;22.13;15.68;;;;;;;;;;5078582;28;20036;-81
2022/10/17 10:27:35;;;;;;;20.55;15.43;;;;;;;;;;5078887;28;20024;-83
2022/10/17 10:30:01;;;;;;;22.70;15.23;;;;;;;;;;5056809;28;20021;-83
2022/10/17 10:32:27;;;;;;;20.55;15.18;;;;;;;;;;5079138;28;20449;-83
2022/10/17 10:34:57;;;;;;;20.25;14.95;;;;;;;;;;5067493;28;20028;-83
2022/10/17 10:37:28;;;;;;;20.13;15.60;;;;;;;;;;5058351;28;20535;-82
2022/10/17 10:39:54;;;;;;;21.92;16.75;;;;;;;;;;5061847;28;20141;-82
2022/10/17 10:42:25;;;;;;;20.50;16.00;;;;;;;;;;5077841;28;20054;-82
2022/10/17 10:44:52;;;;;;;20.60;15.25;;;;;;;;;;5078181;28;20029;-82
2022/10/17 10:47:20;;;;;;;22.30;15.15;;;;;;;;;;5064897;28;20057;-83
2022/10/17 10:49:46;;;;;;;20.77;15.60;;;;;;;;;;5043101;28;20145;-81
2022/10/17 10:52:20;;;;;;;20.40;15.20;;;;;;;;;;5077440;28;20036;-81
2022/10/17 10:54:51;;;;;;;19.85;14.80;;;;;;;;;;5078342;28;20486;-82
2022/10/17 10:57:19;;;;;;;17.67;13.98;;;;;;;;;;5078697;28;20468;-82
2022/10/17 10:59:57;;;;;;;19.30;13.70;;;;;;;;;;5078373;28;20021;-81
2022/10/17 11:02:29;;;;;;;17.52;13.75;;;;;;;;;;5058099;28;20086;-81
2022/10/17 11:05:00;;;;;;;18.02;13.82;;;;;;;;;;5058675;28;20025;-81
2022/10/17 11:07:29;;;;;;;17.27;13.65;;;;;;;;;;5040243;28;21113;-81
2022/10/17 11:10:00;;;;;;;18.88;14.35;;;;;;;;;;5060245;28;20031;-82
2022/10/17 11:12:32;;;;;;;17.02;13.13;;;;;;;;;;5076804;28;20080;-83
2022/10/17 11:15:03;;;;;;;16.37;13.00;;;;;;;;;;5077762;28;20085;-81
2022/10/17 11:17:38;;;;;;;19.88;13.90;;;;;;;;;;5076909;28;20085;-83
2022/10/17 11:20:11;;;;;;;16.35;12.68;;;;;;;;;;5075772;28;20048;-83
2022/10/17 11:22:39;;;;;;;17.50;12.75;;;;;;;;;;5057606;28;20025;-82
2022/10/17 11:25:05;;;;;;;17.40;13.63;;;;;;;;;;5056703;28;20036;-82
2022/10/17 11:27:34;;;;;;;15.57;13.70;;;;;;;;;;5038936;28;20045;-81
2022/10/17 11:30:00;;;;;;;16.67;13.75;;;;;;;;;;5043174;28;20008;-83
2022/10/17 11:32:31;;;;;;;17.10;13.48;;;;;;;;;;5059237;28;20033;-82
2022/10/17 11:35:13;;;;;;;17.90;14.10;;;;;;;;;;5076010;28;20016;-82
2022/10/17 11:37:43;;;;;;;19.05;14.43;;;;;;;;;;5054223;28;20024;-83
2022/10/17 11:40:22;;;;;;;19.23;13.43;;;;;;;;;;5052256;28;20035;-82
2022/10/17 11:42:51;;;;;;;15.55;12.23;;;;;;;;;;5080861;28;20048;-81
2022/10/17 11:45:20;;;;;;;17.13;13.20;;;;;;;;;;5078420;28;20499;-82
2022/10/17 11:47:46;;;;;;;41.78;16.27;;;;;;;;;;5074660;28;20102;-83
2022/10/17 11:50:24;;;;;;;16.80;13.02;;;;;;;;;;5052826;28;20484;-81
2022/10/17 11:52:51;;;;;;;18.45;13.75;;;;;;;;;;5062154;28;20370;-82
2022/10/17 11:55:21;;;;;;;17.85;14.50;;;;;;;;;;5055358;28;20021;-82
2022/10/17 11:58:05;;;;;;;16.63;13.15;;;;;;;;;;5075547;28;20050;-82
2022/10/17 12:00:50;;;;;;;17.20;13.80;;;;;;;;;;5065044;28;20567;-82
2022/10/17 12:03:19;;;;;;;20.10;13.85;;;;;;;;;;5077012;28;20032;-84
2022/10/17 12:05:50;;;;;;;17.35;13.68;;;;;;;;;;5076444;28;20063;-81
2022/10/17 12:08:16;;;;;;;16.88;13.07;;;;;;;;;;5076030;28;20036;-82
2022/10/17 12:10:49;;;;;;;16.75;12.73;;;;;;;;;;5076215;28;20037;-83
2022/10/17 12:13:27;;;;;;;17.10;13.68;;;;;;;;;;5076694;28;20024;-83
2022/10/17 12:15:58;;;;;;;15.35;11.95;;;;;;;;;;5056869;28;20137;-83
2022/10/17 12:18:26;;;;;;;16.95;12.80;;;;;;;;;;5073279;28;20032;-83
2022/10/17 12:20:59;;;;;;;17.00;13.30;;;;;;;;;;5075221;28;20029;-81
2022/10/17 12:23:25;;;;;;;15.23;12.20;;;;;;;;;;5053850;28;20377;-82
2022/10/17 12:26:01;;;;;;;16.10;12.65;;;;;;;;;;5072734;28;20086;-82
2022/10/17 12:28:27;;;;;;;14.00;11.52;;;;;;;;;;5044838;28;20029;-83
2022/10/17 12:30:59;;;;;;;16.33;12.57;;;;;;;;;;5075246;28;20027;-82
2022/10/17 12:33:37;;;;;;;15.55;12.27;;;;;;;;;;5067967;28;20051;-81
2022/10/17 12:36:21;;;;;;;14.45;11.98;;;;;;;;;;5056004;28;20057;-82
2022/10/17 12:39:13;;;;;;;15.70;12.00;;;;;;;;;;5073778;28;20553;-84
2022/10/17 12:41:39;;;;;;;15.77;12.50;;;;;;;;;;5026304;28;20040;-82
2022/10/17 12:44:14;;;;;;;15.80;12.05;;;;;;;;;;5071513;28;20028;-81
2022/10/17 12:46:46;;;;;;;15.35;12.18;;;;;;;;;;5065658;28;20108;-82
2022/10/17 12:49:31;;;;;;;15.73;12.88;;;;;;;;;;5060894;28;20082;-82
2022/10/17 12:52:06;;;;;;;16.77;12.35;;;;;;;;;;5067140;28;20036;-82
2022/10/17 12:54:37;;;;;;;15.85;11.70;;;;;;;;;;5057793;28;20017;-83
2022/10/17 12:57:13;;;;;;;14.43;11.20;;;;;;;;;;5056572;28;20032;-83
2022/10/17 12:59:44;;;;;;;16.38;11.98;;;;;;;;;;5058608;28;20394;-84
2022/10/17 13:02:16;;;;;;;16.02;12.57;;;;;;;;;;5072460;28;20029;-82
2022/10/17 13:04:42;;;;;;;15.88;11.70;;;;;;;;;;5076203;28;20082;-83
2022/10/17 13:07:14;;;;;;;15.45;12.52;;;;;;;;;;5076756;28;20031;-83
2022/10/17 13:09:43;;;;;;;14.80;11.80;;;;;;;;;;5059098;28;20456;-83
2022/10/17 13:12:14;;;;;;;17.45;13.90;;;;;;;;;;5075750;28;20025;-83
2022/10/17 13:14:41;;;;;;;15.32;11.57;;;;;;;;;;5076534;28;20056;-83
2022/10/17 13:17:19;;;;;;;15.23;12.93;;;;;;;;;;5076462;28;20105;-83
2022/10/17 13:19:46;;;;;;;16.50;12.52;;;;;;;;;;5077713;28;20073;-83
2022/10/17 13:22:18;;;;;;;16.17;12.15;;;;;;;;;;5076953;28;20040;-83
2022/10/17 13:24:44;;;;;;;17.25;13.02;;;;;;;;;;5077949;28;20024;-83
2022/10/17 13:27:25;;;;;;;14.50;12.07;;;;;;;;;;5077905;28;20472;-83
2022/10/17 13:29:52;;;;;;;21.42;13.00;;;;;;;;;;5077207;28;20028;-83
2022/10/17 13:32:18;;;;;;;15.68;12.15;;;;;;;;;;5075334;28;20031;-82
2022/10/17 13:34:43;;;;;;;16.85;13.13;;;;;;;;;;5077693;28;20084;-83
2022/10/17 13:37:12;;;;;;;16.38;12.57;;;;;;;;;;5077818;28;20031;-82
2022/10/17 13:39:40;;;;;;;17.95;13.25;;;;;;;;;;5077184;28;20060;-84
2022/10/17 13:42:06;;;;;;;16.88;12.93;;;;;;;;;;5076997;28;20025;-82
2022/10/17 13:44:34;;;;;;;17.15;13.50;;;;;;;;;;5077618;28;20111;-82
2022/10/17 13:47:00;;;;;;;14.35;12.10;;;;;;;;;;5075539;28;20484;-83
2022/10/17 13:49:31;;;;;;;15.60;12.98;;;;;;;;;;5075240;28;20033;-83
2022/10/17 13:51:58;;;;;;;18.20;15.03;;;;;;;;;;5056748;28;20410;-85
2022/10/17 13:54:32;;;;;;;16.95;13.60;;;;;;;;;;5056689;28;20025;-83
2022/10/17 13:56:58;;;;;;;18.05;12.95;;;;;;;;;;5056296;28;20040;-82
2022/10/17 13:59:31;;;;;;;18.13;14.30;;;;;;;;;;5038569;28;20052;-85
2022/10/17 14:02:00;;;;;;;18.40;13.98;;;;;;;;;;5072722;28;20074;-83
2022/10/17 14:04:26;;;;;;;15.15;12.93;;;;;;;;;;5077120;28;20021;-82
2022/10/17 14:06:52;;;;;;;16.27;14.32;;;;;;;;;;5076967;28;20029;-81
2022/10/17 14:09:18;;;;;;;15.85;13.55;;;;;;;;;;5064977;28;20037;-84
2022/10/17 14:11:44;;;;;;;18.20;13.95;;;;;;;;;;5034350;28;20057;-83
2022/10/17 14:14:24;;;;;;;15.68;13.35;;;;;;;;;;5056995;28;20060;-83
2022/10/17 14:16:50;;;;;;;15.55;12.93;;;;;;;;;;5041003;28;20022;-83
2022/10/17 14:19:27;;;;;;;15.68;13.38;;;;;;;;;;5052475;28;20033;-84
2022/10/17 14:21:54;;;;;;;15.40;12.98;;;;;;;;;;5055043;28;20510;-83
2022/10/17 14:24:23;;;;;;;15.40;13.27;;;;;;;;;;5056156;28;20029;-84
2022/10/17 14:26:50;;;;;;;17.30;14.50;;;;;;;;;;5056913;28;20025;-82
2022/10/17 14:29:29;;;;;;;16.13;12.07;;;;;;;;;;5056368;28;20025;-83
2022/10/17 14:32:00;;;;;;;14.23;12.48;;;;;;;;;;5054557;28;20081;-82
2022/10/17 14:34:34;;;;;;;17.17;12.98;;;;;;;;;;5055981;28;20025;-82
2022/10/17 14:37:00;;;;;;;15.50;12.63;;;;;;;;;;5054819;28;20029;-83
2022/10/17 14:39:26;;;;;;;16.40;12.85;;;;;;;;;;5056243;28;20476;-84
2022/10/17 14:41:52;;;;;;;14.68;12.05;;;;;;;;;;5055731;28;20025;-83
2022/10/17 14:44:26;;;;;;;13.70;11.65;;;;;;;;;;5056423;28;20033;-84
2022/10/17 14:46:54;;;;;;;14.05;11.18;;;;;;;;;;5052959;28;20029;-81
2022/10/17 14:49:39;;;;;;;14.30;11.35;;;;;;;;;;5040288;28;20061;-83
2022/10/17 14:52:14;;;;;;;13.50;11.45;;;;;;;;;;5051960;28;20024;-85